Terminal Aerodrome Forecast
Issued by NWS

Home | Current Version | Previous Version | Text Only | Print | Product List | Glossary On
Versions: 1 2 3 4 5 6 7 8 9 10 11 12 13 14 15 16 17 18 19 20 21 22 23
000
FTUS41 KBGM 121129
TAFRME
TAF
KRME 121129Z 1212/1312 12005KT P6SM BKN035
      TEMPO 1212/1213 3SM -SHSN OVC026
     FM121300 21006KT P6SM SCT020 BKN035
     FM121900 21011KT P6SM BKN050
     FM130300 25009KT P6SM BKN050
      TEMPO 1303/1306 3SM -SHSN OVC025
     FM130600 29015G23KT 5SM -SHSN BLSN BKN025 PROB30 1306/1312 2SM
      -SHSN BLSN OVC012=

USA.gov is the U.S. government's official web portal to all federal, state and local government web resources and services.